Time;durP1;ratioP1;P1;durP2;ratioP2;P2;SDS_P1;SDS_P2;PMS_P1;PMS_P2;Temp;Humidity;BMP_temperature;BMP_pressure;BME280_temperature;BME280_humidity;BME280_pressure;Samples;Min_cycle;Max_cycle;Signal;HPM_P1;HPM_P2
2022/10/29 00:01:00;;;;;;;28.30;6.00;;;10.80;99.90;;;;;;5014911;28;20495;-74
2022/10/29 00:03:28;;;;;;;28.48;6.57;;;10.80;99.90;;;;;;5013997;28;20045;-75
2022/10/29 00:06:03;;;;;;;32.50;5.85;;;10.80;99.90;;;;;;5006793;28;20066;-74
2022/10/29 00:08:32;;;;;;;35.53;6.25;;;10.80;99.90;;;;;;5033403;28;20041;-74
2022/10/29 00:11:08;;;;;;;28.27;5.35;;;11.70;99.90;;;;;;5034747;28;20041;-74
2022/10/29 00:13:36;;;;;;;38.65;6.15;;;10.80;99.90;;;;;;5034886;28;20045;-75
2022/10/29 00:16:08;;;;;;;;;;;10.90;99.90;;;;;;5034316;28;20064;-75
2022/10/29 00:18:35;;;;;;;35.85;6.07;;;10.80;99.90;;;;;;5034877;28;19925;-76
2022/10/29 00:21:10;;;;;;;47.05;6.70;;;10.80;99.90;;;;;;5033608;28;20045;-75
2022/10/29 00:23:38;;;;;;;35.75;6.72;;;10.80;99.90;;;;;;5033718;28;20037;-75
2022/10/29 00:26:08;;;;;;;40.70;6.05;;;11.00;99.90;;;;;;5034227;28;20037;-75
2022/10/29 00:28:36;;;;;;;37.92;7.10;;;11.80;99.90;;;;;;5032662;28;20053;-75
2022/10/29 00:31:12;;;;;;;39.90;7.25;;;10.90;99.90;;;;;;5034430;28;20494;-75
2022/10/29 00:33:41;;;;;;;37.83;7.22;;;10.90;99.90;;;;;;5035014;28;20046;-74
2022/10/29 00:36:17;;;;;;;33.08;6.80;;;11.30;99.90;;;;;;5032592;28;20469;-74
2022/10/29 00:38:45;;;;;;;39.47;6.70;;;10.90;99.90;;;;;;5035121;28;20049;-75
2022/10/29 00:41:17;;;;;;;41.97;6.75;;;11.00;99.90;;;;;;5033567;28;20452;-75
2022/10/29 00:43:49;;;;;;;37.47;6.40;;;11.00;99.90;;;;;;5033278;28;20038;-76
2022/10/29 00:46:26;;;;;;;40.05;6.20;;;11.00;99.90;;;;;;5033760;28;20042;-76
2022/10/29 00:48:56;;;;;;;37.10;6.20;;;11.30;99.90;;;;;;5033197;28;20053;-76
2022/10/29 00:51:24;;;;;;;33.17;6.13;;;11.20;99.90;;;;;;5034311;28;20373;-75
2022/10/29 00:54:05;;;;;;;32.80;5.53;;;11.30;99.90;;;;;;5034228;28;20045;-75
2022/10/29 00:56:37;;;;;;;34.30;5.55;;;11.40;99.90;;;;;;5033313;28;20049;-75
2022/10/29 00:59:06;;;;;;;34.97;5.80;;;11.50;99.90;;;;;;5033817;28;20049;-75
2022/10/29 01:01:35;;;;;;;37.10;5.30;;;11.70;99.90;;;;;;5033218;28;20045;-76
2022/10/29 01:04:03;;;;;;;36.22;5.20;;;12.20;99.90;;;;;;5033438;28;20452;-76
2022/10/29 01:06:32;;;;;;;39.53;5.57;;;11.70;99.90;;;;;;5026152;28;20255;-75
2022/10/29 01:09:00;;;;;;;35.67;5.20;;;12.10;99.90;;;;;;5017087;28;20468;-75
2022/10/29 01:11:59;;;;;;;30.55;5.03;;;11.80;99.90;;;;;;5001367;28;20056;-74
2022/10/29 01:15:15;;;;;;;31.38;5.10;;;11.90;99.90;;;;;;5001231;28;20061;-76
2022/10/29 01:18:07;;;;;;;40.47;5.57;;;12.00;99.90;;;;;;4984422;28;20066;-75
2022/10/29 01:20:53;;;;;;;30.70;4.82;;;12.10;99.90;;;;;;5018269;28;20125;-75
2022/10/29 01:23:43;;;;;;;40.10;5.40;;;12.20;99.90;;;;;;4999771;28;20059;-76
2022/10/29 01:26:41;;;;;;;33.28;5.03;;;12.30;99.90;;;;;;5017866;28;20050;-76
2022/10/29 01:29:27;;;;;;;32.28;4.55;;;12.30;99.90;;;;;;4967842;28;20072;-76
2022/10/29 01:32:11;;;;;;;39.00;4.90;;;12.40;99.90;;;;;;5018023;28;20058;-75
2022/10/29 01:35:19;;;;;;;38.30;4.88;;;12.40;99.90;;;;;;5017717;28;20060;-75
2022/10/29 01:37:56;;;;;;;35.22;4.13;;;12.50;99.90;;;;;;5018099;28;20050;-75
2022/10/29 01:40:29;;;;;;;27.63;4.47;;;12.60;99.90;;;;;;5000812;28;20069;-75
2022/10/29 01:43:19;;;;;;;26.75;4.45;;;12.60;99.90;;;;;;4999054;28;20057;-75
2022/10/29 01:46:04;;;;;;;31.25;4.63;;;12.70;99.90;;;;;;5017145;28;20064;-75
2022/10/29 01:48:38;;;;;;;30.58;4.57;;;12.70;99.90;;;;;;5016590;28;20341;-75
2022/10/29 01:51:18;;;;;;;34.88;4.03;;;12.80;99.90;;;;;;5017467;28;20046;-75
2022/10/29 01:53:45;;;;;;;34.70;4.50;;;12.80;99.90;;;;;;5000912;28;20045;-75
2022/10/29 01:56:13;;;;;;;29.98;3.92;;;12.90;99.90;;;;;;5016705;28;20057;-75
2022/10/29 01:58:45;;;;;;;37.40;4.47;;;12.90;99.90;;;;;;5017294;28;20042;-75
2022/10/29 02:01:22;;;;;;;34.22;4.10;;;13.00;99.90;;;;;;5017334;28;20042;-75
2022/10/29 02:04:27;;;;;;;30.60;4.20;;;13.00;99.90;;;;;;5016427;28;20045;-75
2022/10/29 02:07:00;;;;;;;21.83;3.63;;;13.10;99.90;;;;;;5016952;28;20048;-75
2022/10/29 02:09:39;;;;;;;28.67;3.70;;;13.10;99.90;;;;;;4999266;28;20046;-75
2022/10/29 02:12:22;;;;;;;24.92;3.90;;;13.10;99.90;;;;;;5017133;28;20046;-74
2022/10/29 02:14:57;;;;;;;30.55;4.20;;;13.20;99.90;;;;;;5000348;28;20053;-75
2022/10/29 02:17:25;;;;;;;25.52;3.60;;;13.50;99.90;;;;;;5016576;28;20042;-75
2022/10/29 02:19:52;;;;;;;24.50;4.13;;;13.20;99.90;;;;;;5017149;28;20061;-75
2022/10/29 02:22:20;;;;;;;30.50;3.78;;;13.20;99.90;;;;;;4998613;28;20049;-75
2022/10/29 02:24:47;;;;;;;27.27;3.25;;;13.20;99.90;;;;;;4999538;28;20050;-75
2022/10/29 02:27:15;;;;;;;27.55;3.63;;;13.30;99.90;;;;;;5016752;28;20046;-75
2022/10/29 02:29:42;;;;;;;25.60;3.53;;;13.30;99.90;;;;;;4998256;28;20050;-75
2022/10/29 02:32:10;;;;;;;34.95;3.90;;;13.30;99.90;;;;;;4999656;28;20046;-75
2022/10/29 02:34:37;;;;;;;30.58;3.70;;;13.40;99.90;;;;;;5016727;28;20065;-75
2022/10/29 02:37:04;;;;;;;24.75;3.80;;;13.50;99.90;;;;;;5015332;28;20064;-75
2022/10/29 02:39:32;;;;;;;35.30;3.58;;;13.30;99.90;;;;;;5017101;28;20061;-75
2022/10/29 02:41:59;;;;;;;33.33;3.58;;;13.30;99.90;;;;;;5015639;28;20045;-75
2022/10/29 02:44:27;;;;;;;28.65;3.83;;;13.30;99.90;;;;;;5016440;28;20042;-76
2022/10/29 02:46:54;;;;;;;24.75;3.20;;;13.30;99.90;;;;;;5016405;28;20372;-75
2022/10/29 02:49:22;;;;;;;25.67;3.35;;;13.30;99.90;;;;;;4998148;28;20049;-75
2022/10/29 02:51:49;;;;;;;35.35;3.85;;;13.40;99.90;;;;;;5016387;28;20381;-75
2022/10/29 02:54:17;;;;;;;24.38;3.42;;;13.40;99.90;;;;;;4999204;28;20373;-75
2022/10/29 02:56:44;;;;;;;34.88;4.15;;;13.40;99.90;;;;;;5015053;28;20046;-75
2022/10/29 02:59:12;;;;;;;33.28;3.45;;;13.40;99.90;;;;;;5016330;28;20054;-76
2022/10/29 03:01:39;;;;;;;40.03;4.05;;;13.50;99.90;;;;;;5015190;28;20041;-76
2022/10/29 03:04:08;;;;;;;34.42;3.95;;;13.50;99.90;;;;;;5016256;28;20052;-75
2022/10/29 03:06:36;;;;;;;29.52;3.63;;;13.50;99.90;;;;;;5016218;28;20046;-75
2022/10/29 03:09:04;;;;;;;35.80;3.60;;;13.40;99.90;;;;;;5014874;28;20061;-75
2022/10/29 03:11:32;;;;;;;25.95;3.72;;;13.40;99.90;;;;;;5015502;28;20046;-75
2022/10/29 03:13:59;;;;;;;;;;;13.50;99.90;;;;;;4999149;28;20037;-76
2022/10/29 03:16:27;;;;;;;37.25;3.53;;;13.50;99.90;;;;;;5014955;28;19921;-75
2022/10/29 03:18:54;;;;;;;25.17;3.28;;;13.40;99.90;;;;;;5015675;28;20064;-75
2022/10/29 03:21:21;;;;;;;35.15;4.15;;;13.40;99.90;;;;;;5016163;28;20634;-75
2022/10/29 03:23:49;;;;;;;28.33;3.77;;;13.40;99.90;;;;;;5014610;28;20038;-75
2022/10/29 03:26:17;;;;;;;30.38;3.33;;;13.50;99.90;;;;;;5016024;28;20292;-75
2022/10/29 03:28:44;;;;;;;29.77;3.38;;;13.50;99.90;;;;;;5013911;28;20053;-75
2022/10/29 03:31:12;;;;;;;29.05;3.08;;;13.50;99.90;;;;;;5015463;28;20054;-75
2022/10/29 03:33:40;;;;;;;31.93;3.07;;;13.50;99.90;;;;;;5015480;28;20073;-74
2022/10/29 03:36:08;;;;;;;28.02;2.83;;;13.50;99.90;;;;;;5014857;28;20287;-75
2022/10/29 03:38:35;;;;;;;27.23;2.95;;;13.50;99.90;;;;;;4998115;28;20053;-76
2022/10/29 03:41:07;;;;;;;22.63;3.10;;;13.60;99.90;;;;;;4998556;28;20057;-76
2022/10/29 03:43:36;;;;;;;25.27;3.28;;;13.60;99.90;;;;;;5014424;28;20365;-75
2022/10/29 03:46:04;;;;;;;25.80;2.55;;;13.60;99.90;;;;;;5015483;28;20481;-76
2022/10/29 03:48:32;;;;;;;20.65;2.22;;;13.60;99.90;;;;;;5014280;28;20050;-74
2022/10/29 03:51:05;;;;;;;24.35;2.80;;;13.60;99.90;;;;;;5015661;28;20061;-75
2022/10/29 03:53:34;;;;;;;27.30;3.08;;;13.60;99.90;;;;;;5015384;28;20054;-75
2022/10/29 03:56:02;;;;;;;23.88;2.90;;;13.60;99.90;;;;;;5014066;28;20057;-75
2022/10/29 03:58:30;;;;;;;29.88;3.15;;;13.60;99.90;;;;;;5016786;28;20358;-76
2022/10/29 04:01:03;;;;;;;19.23;2.58;;;13.70;99.90;;;;;;5035459;28;20344;-76
2022/10/29 04:03:32;;;;;;;27.02;2.90;;;13.70;99.90;;;;;;5033079;28;20456;-76
2022/10/29 04:06:01;;;;;;;20.05;2.63;;;13.70;99.90;;;;;;5027670;28;20495;-75
2022/10/29 04:08:29;;;;;;;25.23;3.15;;;13.70;99.90;;;;;;5052910;28;20052;-75
2022/10/29 04:10:56;;;;;;;20.65;3.00;;;13.70;99.90;;;;;;5054765;28;20044;-75
2022/10/29 04:13:24;;;;;;;17.48;2.55;;;13.70;99.90;;;;;;5054560;28;20072;-75
2022/10/29 04:15:55;;;;;;;24.90;2.80;;;13.60;99.90;;;;;;5054039;28;20045;-75
2022/10/29 04:18:23;;;;;;;27.23;3.05;;;13.60;99.90;;;;;;5054808;28;20156;-75
2022/10/29 04:20:52;;;;;;;20.35;2.70;;;13.60;99.90;;;;;;5054443;28;20041;-75
2022/10/29 04:23:40;;;;;;;25.08;2.92;;;13.60;99.90;;;;;;5052586;28;20041;-76
2022/10/29 04:26:27;;;;;;;19.17;2.50;;;13.50;99.90;;;;;;5054041;28;20052;-75
2022/10/29 04:29:15;;;;;;;17.08;2.67;;;13.60;99.90;;;;;;5053580;28;20041;-75
2022/10/29 04:31:42;;;;;;;22.57;3.33;;;13.50;99.90;;;;;;5036553;28;20041;-75
2022/10/29 04:34:10;;;;;;;16.83;3.40;;;13.50;99.90;;;;;;5053296;28;20297;-76
2022/10/29 04:36:37;;;;;;;17.77;3.60;;;13.50;99.90;;;;;;5052305;28;20300;-76
2022/10/29 04:39:04;;;;;;;18.63;3.03;;;13.60;99.90;;;;;;5055702;28;20052;-75
2022/10/29 04:41:32;;;;;;;21.02;3.22;;;13.50;99.90;;;;;;5056385;28;20048;-75
2022/10/29 04:44:01;;;;;;;29.58;3.45;;;13.50;99.90;;;;;;5058486;28;20044;-76
2022/10/29 04:46:28;;;;;;;21.60;3.28;;;13.50;99.90;;;;;;5058548;28;20052;-76
2022/10/29 04:48:56;;;;;;;22.60;3.00;;;13.50;99.90;;;;;;5056797;28;20061;-75
2022/10/29 04:51:25;;;;;;;22.50;2.78;;;13.50;99.90;;;;;;5057274;28;20492;-75
2022/10/29 04:53:52;;;;;;;27.58;3.72;;;13.50;99.90;;;;;;5058636;28;20049;-75
2022/10/29 04:56:20;;;;;;;27.80;3.58;;;13.50;99.90;;;;;;5056289;28;20060;-75
2022/10/29 04:58:51;;;;;;;24.40;3.22;;;13.50;99.90;;;;;;5057171;28;20045;-76
2022/10/29 05:01:19;;;;;;;35.42;3.70;;;13.50;99.90;;;;;;5058027;28;20493;-75
2022/10/29 05:03:46;;;;;;;;;;;13.50;99.90;;;;;;5057246;28;20037;-75
2022/10/29 05:06:14;;;;;;;23.43;3.27;;;13.40;99.90;;;;;;5049596;28;19925;-75
2022/10/29 05:08:41;;;;;;;30.48;2.75;;;13.40;99.90;;;;;;5036979;28;20365;-75
2022/10/29 05:11:09;;;;;;;18.65;2.90;;;13.50;99.90;;;;;;5038147;28;20049;-75
2022/10/29 05:13:36;;;;;;;19.08;2.80;;;13.50;99.90;;;;;;5037848;28;20482;-76
2022/10/29 05:16:04;;;;;;;31.08;3.67;;;13.40;99.90;;;;;;5003664;28;20053;-75
2022/10/29 05:18:32;;;;;;;23.35;3.33;;;13.40;99.90;;;;;;5037892;28;20376;-75
2022/10/29 05:20:59;;;;;;;30.95;4.00;;;13.40;99.90;;;;;;5037760;28;20476;-76
2022/10/29 05:23:27;;;;;;;21.60;3.22;;;13.70;99.90;;;;;;5036719;28;20053;-75
2022/10/29 05:25:55;;;;;;;31.00;3.70;;;13.40;99.90;;;;;;5020316;28;20056;-75
2022/10/29 05:28:23;;;;;;;21.65;3.20;;;13.40;99.90;;;;;;5019692;28;20054;-76
2022/10/29 05:30:51;;;;;;;;;;;13.40;99.90;;;;;;5037979;28;20042;-76
2022/10/29 05:33:22;;;;;;;;;;;13.40;99.90;;;;;;5037916;28;19928;-75
2022/10/29 05:35:50;;;;;;;22.20;3.50;;;13.40;99.90;;;;;;5036584;28;19921;-75
2022/10/29 05:38:18;;;;;;;27.25;3.42;;;13.40;99.90;;;;;;5037668;28;20060;-75
2022/10/29 05:40:46;;;;;;;21.30;3.30;;;13.40;99.90;;;;;;5020857;28;20052;-75
2022/10/29 05:43:15;;;;;;;23.93;3.40;;;13.40;99.90;;;;;;5002657;28;20050;-75
2022/10/29 05:45:43;;;;;;;27.67;3.60;;;13.30;99.90;;;;;;5020469;28;20750;-75
2022/10/29 05:48:13;;;;;;;25.48;4.18;;;13.30;99.90;;;;;;5037272;28;20384;-75
2022/10/29 05:50:41;;;;;;;31.17;4.47;;;13.30;99.90;;;;;;5002627;28;20045;-76
2022/10/29 05:53:11;;;;;;;23.75;4.07;;;12.20;99.90;;;;;;5037087;28;20057;-75
2022/10/29 05:55:39;;;;;;;31.98;4.72;;;13.20;99.90;;;;;;5036204;28;20045;-75
2022/10/29 05:58:12;;;;;;;31.02;4.70;;;13.30;99.90;;;;;;5037052;28;20365;-76
2022/10/29 06:00:42;;;;;;;28.15;4.35;;;13.30;99.90;;;;;;5036994;28;20368;-75
2022/10/29 06:03:15;;;;;;;31.98;4.32;;;13.30;99.90;;;;;;5018613;28;20066;-75
2022/10/29 06:05:44;;;;;;;22.75;3.60;;;13.30;99.90;;;;;;5036772;28;20056;-76
2022/10/29 06:08:12;;;;;;;24.15;4.57;;;13.30;99.90;;;;;;5003179;28;20049;-75
2022/10/29 06:10:39;;;;;;;19.60;4.60;;;12.90;99.90;;;;;;5036914;28;20048;-75
2022/10/29 06:13:12;;;;;;;31.75;4.97;;;13.20;99.90;;;;;;5037019;28;20045;-75
2022/10/29 06:15:40;;;;;;;29.80;5.45;;;13.20;99.90;;;;;;5018602;28;20484;-75
2022/10/29 06:18:08;;;;;;;21.15;4.55;;;13.30;99.90;;;;;;5036894;28;20480;-75
2022/10/29 06:20:37;;;;;;;32.22;5.30;;;13.40;99.90;;;;;;5036615;28;20059;-75
2022/10/29 06:23:05;;;;;;;30.02;5.68;;;13.50;99.90;;;;;;5035829;28;20460;-75
2022/10/29 06:25:32;;;;;;;20.98;4.45;;;13.50;99.90;;;;;;5036875;28;20061;-76
2022/10/29 06:28:13;;;;;;;20.00;3.80;;;12.80;99.90;;;;;;5019411;28;20041;-75
2022/10/29 06:30:47;;;;;;;22.50;4.78;;;13.60;99.90;;;;;;5036656;28;20041;-75
2022/10/29 06:33:16;;;;;;;25.92;4.88;;;13.70;99.90;;;;;;5019093;28;20041;-75
2022/10/29 06:35:44;;;;;;;22.05;5.10;;;13.70;99.90;;;;;;5035572;28;20049;-75
2022/10/29 06:38:12;;;;;;;18.40;4.35;;;13.70;99.90;;;;;;5036460;28;20041;-75
2022/10/29 06:40:41;;;;;;;26.08;5.25;;;13.70;99.90;;;;;;5036254;28;20053;-76
2022/10/29 06:43:10;;;;;;;29.70;4.90;;;13.80;99.90;;;;;;5017798;28;20049;-76
2022/10/29 06:45:38;;;;;;;23.70;4.07;;;13.80;99.90;;;;;;5036587;28;20463;-75
2022/10/29 06:48:06;;;;;;;24.58;4.53;;;13.90;99.90;;;;;;5036279;28;20052;-76
2022/10/29 06:50:33;;;;;;;22.83;4.78;;;13.90;99.90;;;;;;5001542;28;20053;-76
2022/10/29 06:53:03;;;;;;;24.75;5.03;;;13.90;99.90;;;;;;5036006;28;20045;-75
2022/10/29 06:55:32;;;;;;;32.50;5.35;;;14.00;99.90;;;;;;5034823;28;20380;-76
2022/10/29 06:58:03;;;;;;;25.77;5.10;;;13.90;99.90;;;;;;5019190;28;20045;-75
2022/10/29 07:00:31;;;;;;;28.40;5.90;;;13.90;99.90;;;;;;5018870;28;20487;-76
2022/10/29 07:02:59;;;;;;;30.67;6.15;;;13.90;99.90;;;;;;5017444;28;20064;-75
2022/10/29 07:05:27;;;;;;;23.90;5.97;;;13.90;99.90;;;;;;5018388;28;20037;-75
2022/10/29 07:07:59;;;;;;;23.08;6.20;;;14.00;99.90;;;;;;5035923;28;20064;-75
2022/10/29 07:10:29;;;;;;;25.42;6.25;;;14.00;99.90;;;;;;5034705;28;20048;-75
2022/10/29 07:12:57;;;;;;;26.63;6.15;;;14.00;99.90;;;;;;5036062;28;20045;-75
2022/10/29 07:15:30;;;;;;;25.33;7.05;;;12.70;99.90;;;;;;5034625;28;20057;-75
2022/10/29 07:18:02;;;;;;;33.00;7.30;;;14.10;99.90;;;;;;5035523;28;20049;-75
2022/10/29 07:20:41;;;;;;;33.05;7.00;;;14.10;99.90;;;;;;5034829;28;20472;-75
2022/10/29 07:23:13;;;;;;;31.40;7.93;;;13.40;99.90;;;;;;5016703;28;20049;-74
2022/10/29 07:25:40;;;;;;;24.27;6.93;;;14.20;99.90;;;;;;5035389;28;20056;-74
2022/10/29 07:28:17;;;;;;;27.23;6.75;;;14.20;99.90;;;;;;5035066;28;20050;-74
2022/10/29 07:30:44;;;;;;;29.52;7.18;;;14.20;99.90;;;;;;5017931;28;20049;-74
2022/10/29 07:33:14;;;;;;;38.85;8.32;;;14.30;99.90;;;;;;5034973;28;20590;-75
2022/10/29 07:35:42;;;;;;;36.92;7.95;;;14.30;99.90;;;;;;5033749;28;20052;-72
2022/10/29 07:38:11;;;;;;;30.42;7.68;;;14.40;99.90;;;;;;5034910;28;20495;-75
2022/10/29 07:40:45;;;;;;;24.17;7.63;;;14.40;99.90;;;;;;5034900;28;20468;-74
2022/10/29 07:43:13;;;;;;;28.60;8.13;;;14.40;99.90;;;;;;5033850;28;20045;-74
2022/10/29 07:45:43;;;;;;;35.63;8.75;;;14.50;99.90;;;;;;5034685;28;20057;-74
2022/10/29 07:48:11;;;;;;;28.15;8.20;;;14.60;99.90;;;;;;5016258;28;20041;-75
2022/10/29 07:50:38;;;;;;;25.30;7.78;;;14.70;99.90;;;;;;5034197;28;20048;-75
2022/10/29 07:53:06;;;;;;;28.70;7.30;;;14.70;99.90;;;;;;5034733;28;20056;-75
2022/10/29 07:55:34;;;;;;;31.00;8.15;;;14.80;99.90;;;;;;5033695;28;20056;-75
2022/10/29 07:58:08;;;;;;;29.65;8.30;;;14.90;99.90;;;;;;5034533;28;20423;-75
2022/10/29 08:00:39;;;;;;;28.38;7.80;;;15.00;99.90;;;;;;5017479;28;20068;-74
2022/10/29 08:03:08;;;;;;;21.05;7.30;;;14.90;99.90;;;;;;5016258;28;20053;-74
2022/10/29 08:05:36;;;;;;;37.83;7.60;;;15.10;99.90;;;;;;5034020;28;20499;-74
2022/10/29 08:08:04;;;;;;;35.78;7.53;;;15.20;99.90;;;;;;5034475;28;20468;-74
2022/10/29 08:10:33;;;;;;;19.80;7.07;;;15.20;99.90;;;;;;5033259;28;20056;-74
2022/10/29 08:13:03;;;;;;;21.85;6.78;;;15.30;99.90;;;;;;5034386;28;20037;-74
2022/10/29 08:15:32;;;;;;;25.40;6.78;;;15.30;99.90;;;;;;4999257;28;20057;-74
2022/10/29 08:18:08;;;;;;;24.88;6.88;;;15.40;99.90;;;;;;5034430;28;20468;-74
2022/10/29 08:20:35;;;;;;;24.05;6.43;;;15.50;99.90;;;;;;5034049;28;20049;-74
2022/10/29 08:23:03;;;;;;;20.35;6.70;;;15.60;99.90;;;;;;5033468;28;20052;-74
2022/10/29 08:25:33;;;;;;;31.13;7.32;;;15.60;99.90;;;;;;5034564;28;20487;-76
2022/10/29 08:28:02;;;;;;;29.10;7.45;;;15.70;99.90;;;;;;5034952;28;20092;-74
2022/10/29 08:30:30;;;;;;;24.50;6.55;;;15.70;99.90;;;;;;5016390;28;20579;-74
2022/10/29 08:32:58;;;;;;;20.50;7.22;;;15.80;99.90;;;;;;5017466;28;20060;-74
2022/10/29 08:35:27;;;;;;;24.85;6.60;;;15.90;99.90;;;;;;5015964;28;20049;-74
2022/10/29 08:37:55;;;;;;;;;;;16.00;99.90;;;;;;5018112;28;20484;-74
2022/10/29 08:41:00;;;;;;;26.20;6.28;;;16.10;99.90;;;;;;5034392;28;19928;-74
2022/10/29 08:43:46;;;;;;;26.17;6.57;;;16.20;99.90;;;;;;5015963;28;20053;-74
2022/10/29 08:46:23;;;;;;;24.35;6.68;;;16.20;99.90;;;;;;5034735;28;20061;-74
2022/10/29 08:48:56;;;;;;;19.35;6.13;;;16.40;99.90;;;;;;5033582;28;20045;-75
2022/10/29 08:51:37;;;;;;;23.05;6.85;;;16.40;99.90;;;;;;4990429;28;20046;-74
2022/10/29 08:54:12;;;;;;;28.83;6.85;;;16.50;99.90;;;;;;4997644;28;20049;-74
2022/10/29 08:57:07;;;;;;;26.05;6.63;;;16.60;99.90;;;;;;4999302;28;20049;-76
2022/10/29 08:59:40;;;;;;;22.38;5.95;;;16.70;99.90;;;;;;4997723;28;20046;-77
2022/10/29 09:02:15;;;;;;;20.75;5.95;;;16.80;99.90;;;;;;5013649;28;20057;-76
2022/10/29 09:04:48;;;;;;;26.15;6.20;;;16.90;99.90;;;;;;5014502;28;20050;-80
2022/10/29 09:07:34;;;;;;;29.95;6.28;;;16.90;99.90;;;;;;5051818;28;20379;-76
2022/10/29 09:10:10;;;;;;;17.88;6.07;;;16.90;99.90;;;;;;5052326;28;20045;-76
2022/10/29 09:13:06;;;;;;;20.33;5.82;;;17.10;99.90;;;;;;5053557;28;20064;-76
2022/10/29 09:15:43;;;;;;;29.83;6.63;;;17.20;99.90;;;;;;5052225;28;20045;-76
2022/10/29 09:18:30;;;;;;;22.50;6.22;;;17.30;99.90;;;;;;5054473;28;20045;-76
2022/10/29 09:21:12;;;;;;;22.45;5.85;;;17.40;99.90;;;;;;5053120;28;20074;-75
2022/10/29 09:23:52;;;;;;;21.33;6.00;;;17.50;99.90;;;;;;5052931;28;20053;-76
2022/10/29 09:26:23;;;;;;;28.45;6.45;;;17.60;99.90;;;;;;5054950;28;20337;-75
2022/10/29 09:29:15;;;;;;;27.05;6.22;;;17.60;99.90;;;;;;5056809;28;20045;-75
2022/10/29 09:31:52;;;;;;;28.13;6.15;;;17.70;99.90;;;;;;5056555;28;20045;-75
2022/10/29 09:34:30;;;;;;;26.30;6.33;;;17.90;99.90;;;;;;5056747;28;20048;-73
2022/10/29 09:37:00;;;;;;;20.98;6.05;;;18.00;99.90;;;;;;5056523;28;20052;-76
2022/10/29 09:39:32;;;;;;;;;;;18.10;99.90;;;;;;5057682;28;20045;-76
2022/10/29 09:42:04;;;;;;;21.55;6.75;;;18.20;99.90;;;;;;5056394;28;19920;-76
2022/10/29 09:44:37;;;;;;;21.80;5.75;;;18.30;99.90;;;;;;5040315;28;20049;-76
2022/10/29 09:47:24;;;;;;;21.35;5.93;;;18.50;99.90;;;;;;5056757;28;20376;-76
2022/10/29 09:50:18;;;;;;;21.25;5.78;;;18.60;99.90;;;;;;5036450;28;20067;-76
2022/10/29 09:52:48;;;;;;;25.40;5.82;;;18.70;99.90;;;;;;5037645;28;20049;-76
2022/10/29 09:55:40;;;;;;;21.23;5.70;;;18.70;99.90;;;;;;5036605;28;20045;-76
2022/10/29 09:58:19;;;;;;;21.88;5.30;;;18.80;99.90;;;;;;5037315;28;20483;-76
2022/10/29 10:00:47;;;;;;;23.60;5.70;;;18.90;99.90;;;;;;5037279;28;20064;-76
2022/10/29 10:03:29;;;;;;;20.83;5.90;;;19.00;99.90;;;;;;5035270;28;20049;-76
2022/10/29 10:05:58;;;;;;;27.77;5.68;;;19.10;99.90;;;;;;5030402;28;20050;-76
2022/10/29 10:08:26;;;;;;;25.15;6.05;;;19.20;99.90;;;;;;4998726;28;20053;-76
2022/10/29 10:11:03;;;;;;;21.00;5.72;;;19.20;99.90;;;;;;4999795;28;20496;-76
2022/10/29 10:13:34;;;;;;;23.98;5.68;;;19.20;99.90;;;;;;5016911;28;20056;-76
2022/10/29 10:16:04;;;;;;;21.52;5.80;;;19.20;99.90;;;;;;5015171;28;20068;-76
2022/10/29 10:18:32;;;;;;;24.88;5.80;;;19.20;99.90;;;;;;5008639;28;20050;-77
2022/10/29 10:21:07;;;;;;;28.67;6.22;;;19.20;99.90;;;;;;4999906;28;20453;-78
2022/10/29 10:23:50;;;;;;;18.23;5.57;;;19.20;99.90;;;;;;5015818;28;20053;-76
2022/10/29 10:26:38;;;;;;;24.30;5.78;;;19.10;99.90;;;;;;5016677;28;20049;-76
2022/10/29 10:29:20;;;;;;;22.02;6.03;;;19.10;99.90;;;;;;5015873;28;20061;-77
2022/10/29 10:32:15;;;;;;;22.50;5.97;;;19.10;99.90;;;;;;5016569;28;20068;-76
2022/10/29 10:34:42;;;;;;;21.73;6.28;;;19.00;99.90;;;;;;5016570;28;20045;-76
2022/10/29 10:37:10;;;;;;;26.52;6.38;;;19.00;99.90;;;;;;5015083;28;20069;-77
2022/10/29 10:39:40;;;;;;;21.05;6.55;;;19.10;99.90;;;;;;5016443;28;20050;-77
2022/10/29 10:42:25;;;;;;;26.67;6.80;;;19.10;99.90;;;;;;4982540;28;20061;-77
2022/10/29 10:45:01;;;;;;;21.85;5.93;;;19.10;99.90;;;;;;4999267;28;20058;-76
2022/10/29 10:47:35;;;;;;;20.92;6.30;;;19.10;99.90;;;;;;5016803;28;20050;-77
2022/10/29 10:50:21;;;;;;;25.48;6.18;;;19.20;99.90;;;;;;5015532;28;20049;-77
2022/10/29 10:52:56;;;;;;;27.50;6.78;;;19.20;99.90;;;;;;5016879;28;20064;-77
2022/10/29 10:55:46;;;;;;;20.98;6.50;;;19.20;99.90;;;;;;5015093;28;20046;-77
2022/10/29 10:58:35;;;;;;;18.50;6.65;;;19.20;99.90;;;;;;5016075;28;20469;-77
2022/10/29 11:01:22;;;;;;;23.48;6.47;;;19.30;99.90;;;;;;5016360;28;20116;-74
2022/10/29 11:04:15;;;;;;;19.77;6.30;;;19.20;99.90;;;;;;4997637;28;20069;-77
2022/10/29 11:06:58;;;;;;;27.00;5.88;;;19.30;99.90;;;;;;5020181;28;20064;-78
2022/10/29 11:09:53;;;;;;;26.20;6.30;;;19.30;99.90;;;;;;5034392;28;20072;-77
2022/10/29 11:12:40;;;;;;;24.70;6.43;;;19.40;99.90;;;;;;5033901;28;20052;-76
2022/10/29 11:15:14;;;;;;;27.13;5.95;;;19.40;99.90;;;;;;5031369;28;20049;-74
2022/10/29 11:17:46;;;;;;;22.08;6.03;;;19.50;99.90;;;;;;5037977;28;20074;-74
2022/10/29 11:20:27;;;;;;;22.90;6.18;;;19.60;99.90;;;;;;5047922;28;20053;-74
2022/10/29 11:23:02;;;;;;;24.20;6.22;;;19.70;99.90;;;;;;5045053;28;20368;-73
2022/10/29 11:25:44;;;;;;;20.05;5.85;;;19.70;99.90;;;;;;5054335;28;20463;-73
2022/10/29 11:28:14;;;;;;;16.25;5.70;;;19.80;99.90;;;;;;5055545;28;20051;-75
2022/10/29 11:30:50;;;;;;;22.17;6.13;;;19.90;99.90;;;;;;5055660;28;20045;-75
2022/10/29 11:33:26;;;;;;;25.35;5.70;;;20.00;99.90;;;;;;5048683;28;20045;-74
2022/10/29 11:35:59;;;;;;;17.90;6.13;;;20.00;99.90;;;;;;5039323;28;20041;-75
2022/10/29 11:38:40;;;;;;;23.77;6.43;;;20.00;99.90;;;;;;5035155;28;20377;-75
2022/10/29 11:41:45;;;;;;;24.75;6.35;;;20.10;99.90;;;;;;5018462;28;20053;-75
2022/10/29 11:44:16;;;;;;;21.50;5.78;;;20.20;99.90;;;;;;5048796;28;20060;-76
2022/10/29 11:47:12;;;;;;;20.90;6.00;;;20.20;99.90;;;;;;5054074;28;20476;-73
2022/10/29 11:50:16;;;;;;;24.63;5.38;;;20.30;99.90;;;;;;5052551;28;20059;-75
2022/10/29 11:52:44;;;;;;;20.25;6.15;;;20.30;99.90;;;;;;5054822;28;20045;-75
2022/10/29 11:55:34;;;;;;;23.10;5.90;;;20.30;99.90;;;;;;5052929;28;20045;-76
2022/10/29 11:58:15;;;;;;;21.10;5.43;;;20.30;99.90;;;;;;5054341;28;20045;-74
2022/10/29 12:01:26;;;;;;;21.05;5.65;;;20.30;99.90;;;;;;5054188;28;20044;-75
2022/10/29 12:04:01;;;;;;;22.67;6.03;;;20.30;99.90;;;;;;4972943;28;20054;-73
2022/10/29 12:07:03;;;;;;;24.20;6.20;;;20.30;99.90;;;;;;4974126;28;20524;-74
2022/10/29 12:09:52;;;;;;;25.27;6.15;;;20.40;99.90;;;;;;5042033;28;20045;-74
2022/10/29 12:12:43;;;;;;;21.55;5.75;;;20.30;99.90;;;;;;5054795;28;20492;-73
2022/10/29 12:15:31;;;;;;;20.55;5.38;;;20.30;99.90;;;;;;5053862;28;20052;-73
2022/10/29 12:18:26;;;;;;;16.45;5.80;;;20.40;99.90;;;;;;5054555;28;20056;-73
2022/10/29 12:21:11;;;;;;;18.60;5.53;;;20.30;99.90;;;;;;5054096;28;20049;-73
2022/10/29 12:24:17;;;;;;;22.63;5.85;;;20.30;99.90;;;;;;5053542;28;20045;-73
2022/10/29 12:26:54;;;;;;;;;;;20.30;99.90;;;;;;5053917;28;20048;-73
2022/10/29 12:29:48;;;;;;;25.98;5.40;;;20.40;99.90;;;;;;5053639;28;19921;-73
2022/10/29 12:32:24;;;;;;;22.15;5.72;;;20.40;99.90;;;;;;5049760;28;20056;-72
2022/10/29 12:35:01;;;;;;;19.38;5.00;;;20.50;99.90;;;;;;5054445;28;20037;-73
2022/10/29 12:37:36;;;;;;;21.88;5.35;;;20.60;99.90;;;;;;5054961;28;20468;-73
2022/10/29 12:40:27;;;;;;;25.45;5.32;;;20.70;99.90;;;;;;5054041;28;20387;-73
2022/10/29 12:42:59;;;;;;;20.63;5.50;;;20.80;99.90;;;;;;5052372;28;20052;-73
2022/10/29 12:45:38;;;;;;;24.48;5.28;;;20.80;99.90;;;;;;5054439;28;20368;-73
2022/10/29 12:48:37;;;;;;;24.38;5.90;;;20.90;99.90;;;;;;5053234;28;20056;-73
2022/10/29 12:51:21;;;;;;;19.88;4.95;;;21.00;99.90;;;;;;5054528;28;20056;-73
2022/10/29 12:54:10;;;;;;;21.45;5.53;;;21.00;99.90;;;;;;5054374;28;20045;-73
2022/10/29 12:56:38;;;;;;;19.95;5.10;;;21.00;99.90;;;;;;5053027;28;20059;-73
2022/10/29 12:59:23;;;;;;;19.60;5.18;;;21.10;99.90;;;;;;5054161;28;20048;-74
2022/10/29 13:01:51;;;;;;;16.70;5.07;;;21.20;99.90;;;;;;5051230;28;20049;-72
2022/10/29 13:04:59;;;;;;;;;;;21.20;99.90;;;;;;5056332;28;20368;-71
2022/10/29 13:07:26;;;;;;;18.83;5.28;;;21.20;99.90;;;;;;5056196;28;19921;-71
2022/10/29 13:10:25;;;;;;;22.80;5.85;;;21.20;99.90;;;;;;5037032;28;20056;-72
2022/10/29 13:13:15;;;;;;;20.13;5.75;;;21.20;99.90;;;;;;5037929;28;20045;-73
2022/10/29 13:15:57;;;;;;;21.67;5.80;;;21.20;99.90;;;;;;5036718;28;20045;-72
2022/10/29 13:18:32;;;;;;;27.45;5.90;;;21.10;99.90;;;;;;5037060;28;20043;-73